Time;durP1;ratioP1;P1;durP2;ratioP2;P2;SDS_P1;SDS_P2;PMS_P1;PMS_P2;Temp;Humidity;BMP_temperature;BMP_pressure;BME280_temperature;BME280_humidity;BME280_pressure;Samples;Min_cycle;Max_cycle;Signal;HPM_P1;HPM_P2
2022/04/27 06:29:25;;;;;;;;;26.50;21.75;;;;;12.25;100.00;101813.50;6129364;22;44692;-84
2022/04/27 06:32:02;;;;;;;;;23.75;20.75;;;;;12.34;100.00;101827.19;6164262;22;45248;-82
2022/04/27 06:35:09;;;;;;;;;26.75;21.25;;;;;12.44;100.00;101827.69;6124425;23;45299;-84
2022/04/27 06:37:34;;;;;;;;;20.25;17.00;;;;;12.43;100.00;101816.22;6128477;23;45378;-84
2022/04/27 06:40:01;;;;;;;;;28.00;23.25;;;;;12.49;100.00;101820.94;6131904;22;45361;-83
2022/04/27 06:42:27;;;;;;;;;20.00;17.50;;;;;12.49;100.00;101823.56;6146670;23;47267;-84
2022/04/27 06:44:52;;;;;;;;;23.00;17.75;;;;;12.49;100.00;101823.56;6141883;22;45386;-84
2022/04/27 06:47:18;;;;;;;;;24.25;21.75;;;;;12.53;100.00;101828.19;6114228;23;45757;-84
2022/04/27 06:49:43;;;;;;;;;28.25;23.00;;;;;12.57;100.00;101832.81;6137478;23;45532;-84
2022/04/27 06:52:08;;;;;;;;;23.25;22.00;;;;;12.59;100.00;101838.16;6109867;23;46113;-85
2022/04/27 06:54:34;;;;;;;;;26.25;20.75;;;;;12.60;100.00;101837.34;6112541;23;45307;-88
2022/04/27 06:56:59;;;;;;;;;23.50;18.50;;;;;12.61;100.00;101844.41;6111952;23;45291;-87
2022/04/27 06:59:24;;;;;;;;;28.25;20.00;;;;;12.65;100.00;101845.47;6111967;23;48594;-84
2022/04/27 07:01:50;;;;;;;;;24.75;19.75;;;;;12.68;100.00;101851.81;6114408;23;46388;-84
2022/04/27 07:04:16;;;;;;;;;24.50;21.00;;;;;12.73;100.00;101854.72;6113470;23;45340;-85
2022/04/27 07:06:42;;;;;;;;;27.00;23.00;;;;;12.79;100.00;101860.31;6114102;23;45341;-86
2022/04/27 07:09:11;;;;;;;;;27.25;25.50;;;;;12.85;100.00;101858.00;6113471;23;45685;-85
2022/04/27 07:11:37;;;;;;;;;23.50;18.50;;;;;12.92;100.00;101867.16;6137292;23;48426;-85
2022/04/27 07:14:03;;;;;;;;;21.50;21.50;;;;;12.96;100.00;101868.22;6137061;23;45833;-85
2022/04/27 07:16:28;;;;;;;;;29.50;16.75;;;;;13.01;100.00;101866.75;6137353;23;45325;-85
2022/04/27 07:18:55;;;;;;;;;25.00;19.50;;;;;13.06;100.00;101870.53;6113373;23;45353;-87
2022/04/27 07:21:21;;;;;;;;;26.25;22.00;;;;;13.11;100.00;101868.13;6136015;23;48378;-85
2022/04/27 07:23:46;;;;;;;;;22.75;21.00;;;;;13.15;100.00;101875.38;6113559;23;45922;-85
2022/04/27 07:26:11;;;;;;;;;30.50;22.00;;;;;13.21;100.00;101873.88;6114617;23;45259;-87
2022/04/27 07:28:38;;;;;;;;;23.00;19.25;;;;;13.28;100.00;101881.28;6113801;23;45343;-85
2022/04/27 07:31:04;;;;;;;;;25.75;24.00;;;;;13.35;100.00;101869.34;6114630;23;46198;-87
2022/04/27 07:33:31;;;;;;;;;25.75;22.25;;;;;13.40;100.00;101883.69;6135458;23;45404;-86
2022/04/27 07:35:56;;;;;;;;;26.00;24.00;;;;;13.46;100.00;101876.06;6111967;23;45309;-86
2022/04/27 07:38:22;;;;;;;;;22.00;16.25;;;;;13.54;100.00;101876.47;6107476;22;45429;-85
2022/04/27 07:40:47;;;;;;;;;29.75;22.00;;;;;13.59;100.00;101877.63;6109417;23;46429;-85
2022/04/27 07:43:14;;;;;;;;;27.00;22.25;;;;;13.68;100.00;101878.94;6108683;23;45307;-85
2022/04/27 07:45:40;;;;;;;;;29.50;22.25;;;;;13.75;100.00;101886.34;6134252;23;45315;-85
2022/04/27 07:48:05;;;;;;;;;30.75;21.75;;;;;13.83;99.82;101890.28;6134733;22;45429;-87
2022/04/27 07:50:30;;;;;;;;;29.25;24.50;;;;;13.90;99.80;101885.28;6109619;23;47179;-85
2022/04/27 07:52:57;;;;;;;;;26.50;23.50;;;;;13.95;100.00;101887.34;6111818;23;45263;-85
2022/04/27 07:55:22;;;;;;;;;34.75;25.25;;;;;14.02;99.89;101891.19;6135543;23;45488;-87
2022/04/27 07:57:48;;;;;;;;;30.75;24.75;;;;;14.11;99.83;101889.81;6111321;23;45337;-86
2022/04/27 08:00:14;;;;;;;;;25.25;21.75;;;;;14.17;99.70;101892.78;6111967;23;45920;-84
2022/04/27 08:02:41;;;;;;;;;32.75;26.50;;;;;14.25;99.76;101893.16;6113252;23;45476;-85
2022/04/27 08:05:07;;;;;;;;;29.25;23.00;;;;;14.35;99.18;101899.78;6112766;23;45619;-84
2022/04/27 08:07:36;;;;;;;;;28.00;23.50;;;;;14.45;99.44;101896.75;6109418;23;45831;-84
2022/04/27 08:10:13;;;;;;;;;24.75;23.75;;;;;14.54;99.20;101898.91;6108783;23;45729;-85
2022/04/27 08:12:40;;;;;;;;;32.50;22.00;;;;;14.61;99.37;101901.00;6109378;23;45282;-85
2022/04/27 08:15:06;;;;;;;;;34.75;26.50;;;;;14.69;99.08;101900.50;6112291;23;45408;-85
2022/04/27 08:17:33;;;;;;;;;29.25;23.25;;;;;14.77;99.18;101903.47;6112602;23;45414;-85
2022/04/27 08:22:42;;;;;;;;;28.00;20.25;;;;;14.93;98.85;101908.69;6110331;23;45545;-85
2022/04/27 08:25:08;;;;;;;;;26.00;21.75;;;;;15.01;98.72;101908.13;6110705;22;45787;-85
2022/04/27 08:27:33;;;;;;;;;29.50;25.25;;;;;15.06;98.74;101906.59;6112152;23;45397;-86
2022/04/27 08:29:59;;;;;;;;;32.75;24.75;;;;;15.15;98.90;101914.94;6112418;23;46382;-86
2022/04/27 08:32:24;;;;;;;;;19.25;16.50;;;;;15.26;98.89;101904.84;6112190;23;45349;-85
2022/04/27 08:34:49;;;;;;;;;33.00;27.25;;;;;15.38;98.37;101912.44;6111417;23;45638;-86
2022/04/27 08:37:15;;;;;;;;;30.25;25.25;;;;;15.49;98.09;101923.47;6107120;23;45516;-85
2022/04/27 08:39:40;;;;;;;;;23.25;21.00;;;;;15.57;98.02;101921.16;6111504;23;46214;-85
2022/04/27 08:42:05;;;;;;;;;28.25;26.75;;;;;15.68;98.06;101916.34;6134333;23;45360;-86
2022/04/27 08:44:31;;;;;;;;;34.50;29.00;;;;;15.81;98.02;101912.47;6112315;23;45286;-85
2022/04/27 08:46:58;;;;;;;;;29.00;25.00;;;;;15.91;97.72;101923.44;6108712;23;45858;-85
2022/04/27 08:49:23;;;;;;;;;30.25;25.50;;;;;15.93;97.68;101919.13;6111413;23;45471;-88
2022/04/27 08:51:49;;;;;;;;;25.75;21.75;;;;;16.01;97.81;101916.78;6111360;22;45293;-87
2022/04/27 08:54:15;;;;;;;;;32.75;26.50;;;;;16.14;97.42;101920.88;6111201;23;45219;-86
2022/04/27 08:56:41;;;;;;;;;32.25;26.00;;;;;16.25;97.74;101910.75;6112005;23;45342;-86
2022/04/27 08:59:08;;;;;;;;;26.50;21.25;;;;;16.37;97.46;101920.91;6110297;23;47408;-86
2022/04/27 09:01:34;;;;;;;;;33.00;25.50;;;;;16.46;97.06;101921.31;6109667;23;45919;-85
2022/04/27 09:04:14;;;;;;;;;25.50;23.25;;;;;16.51;97.04;101924.13;6108323;23;45413;-86
2022/04/27 09:06:40;;;;;;;;;24.25;22.00;;;;;16.60;97.27;101926.22;6111676;23;45429;-86
2022/04/27 09:09:10;;;;;;;;;30.00;23.25;;;;;16.72;97.19;101917.88;6108537;23;47268;-86
2022/04/27 09:11:37;;;;;;;;;29.75;25.00;;;;;16.86;96.96;101929.00;6110970;23;45461;-86
2022/04/27 09:14:06;;;;;;;;;27.75;25.50;;;;;17.00;96.94;101937.50;6109481;23;45672;-86
2022/04/27 09:22:04;;;;;;;;;27.50;24.75;;;;;17.33;96.81;101924.53;6109571;23;45673;-86
2022/04/27 09:24:51;;;;;;;;;31.75;25.25;;;;;17.49;96.43;101936.63;6111235;23;45460;-86
2022/04/27 09:27:18;;;;;;;;;33.50;26.75;;;;;17.63;96.29;101932.69;6111814;23;45219;-86
2022/04/27 09:30:01;;;;;;;;;32.00;25.00;;;;;17.78;96.20;101941.16;6113136;23;45303;-86
2022/04/27 09:32:27;;;;;;;;;26.50;23.00;;;;;17.90;95.96;101944.22;6112685;23;45334;-85
2022/04/27 09:34:54;;;;;;;;;27.25;23.75;;;;;18.06;95.67;101942.09;6109283;23;45385;-86
2022/04/27 09:37:22;;;;;;;;;24.50;18.75;;;;;18.21;95.57;101944.38;6108473;23;45524;-86
2022/04/27 09:40:14;;;;;;;;;28.75;25.50;;;;;18.39;95.77;101943.16;6109978;23;46498;-86
2022/04/27 09:42:43;;;;;;;;;26.00;22.00;;;;;18.59;95.09;101945.53;6112377;23;45326;-85
2022/04/27 09:45:25;;;;;;;;;30.50;25.50;;;;;18.81;95.04;101946.22;6114187;23;45427;-86
2022/04/27 09:48:01;;;;;;;;;25.25;23.00;;;;;18.92;94.44;101942.09;6129026;23;44928;-86
2022/04/27 09:50:44;;;;;;;;;25.75;24.50;;;;;19.17;94.58;101945.47;6127149;23;48085;-86
2022/04/27 09:53:11;;;;;;;;;35.00;29.25;;;;;19.50;94.05;101950.84;6126083;23;46187;-86
2022/04/27 09:55:43;;;;;;;;;28.25;25.50;;;;;19.81;93.66;101951.69;6115913;23;45487;-86
2022/04/27 09:58:13;;;;;;;;;27.25;24.75;;;;;20.21;93.97;101953.56;6111560;23;45347;-86
2022/04/27 10:00:45;;;;;;;;;26.00;25.25;;;;;20.57;93.04;101941.06;6132097;23;47874;-88
2022/04/27 10:03:18;;;;;;;;;34.25;28.25;;;;;20.68;92.94;101944.00;6134519;23;45624;-89
2022/04/27 10:05:44;;;;;;;;;30.75;25.75;;;;;20.85;92.19;101954.13;6112598;23;45235;-88
2022/04/27 10:08:10;;;;;;;;;22.75;20.25;;;;;20.99;91.96;101946.41;6108687;23;45532;-88
2022/04/27 10:10:41;;;;;;;;;35.75;28.00;;;;;21.38;91.37;101947.25;6110358;23;48085;-86
2022/04/27 10:13:11;;;;;;;;;23.50;23.00;;;;;21.58;90.90;101949.38;6112130;23;45300;-87
2022/04/27 10:15:41;;;;;;;;;27.75;25.00;;;;;21.75;90.85;101946.13;6112277;23;45406;-85
2022/04/27 10:18:09;;;;;;;;;31.00;28.25;;;;;21.88;90.40;101945.47;6112657;23;45361;-88
2022/04/27 10:20:35;;;;;;;;;26.50;21.00;;;;;21.93;89.69;101942.00;6111025;23;47291;-88
2022/04/27 10:23:17;;;;;;;;;33.00;27.75;;;;;22.36;89.70;101943.56;6111358;23;45354;-87
2022/04/27 10:26:09;;;;;;;;;32.50;24.25;;;;;22.77;89.43;101934.34;6111499;23;45280;-88
2022/04/27 10:28:36;;;;;;;;;28.75;24.00;;;;;22.94;88.12;101929.22;6111926;23;45414;-88
2022/04/27 10:31:03;;;;;;;;;21.50;19.50;;;;;23.14;87.70;101938.38;6111302;23;46857;-89
2022/04/27 10:33:38;;;;;;;;;31.50;25.75;;;;;23.36;87.27;101939.50;6113070;23;45385;-86
2022/04/27 10:36:28;;;;;;;;;20.50;18.50;;;;;23.56;87.36;101933.47;6111743;23;45354;-87
2022/04/27 10:39:12;;;;;;;;;26.50;21.75;;;;;23.70;85.76;101930.94;6114991;23;45329;-88
2022/04/27 10:42:01;;;;;;;;;26.00;24.00;;;;;23.68;85.18;101935.41;6113230;23;46399;-85
2022/04/27 10:45:04;;;;;;;;;26.50;19.75;;;;;24.26;85.14;101934.94;6109120;23;45388;-87
2022/04/27 10:47:35;;;;;;;;;24.25;20.00;;;;;25.62;87.39;101924.78;6109903;23;45746;-87
2022/04/27 10:50:21;;;;;;;;;26.50;23.50;;;;;28.23;87.05;101926.34;6108401;23;45837;-86
2022/04/27 10:52:52;;;;;;;;;28.00;25.50;;;;;29.65;83.92;101944.38;6110068;23;45398;-87
2022/04/27 10:55:35;;;;;;;;;24.00;21.00;;;;;31.16;82.14;101945.13;6110078;23;45697;-87
2022/04/27 10:58:30;;;;;;;;;28.67;25.00;;;;;32.60;79.68;101947.88;6110390;23;45687;-87
2022/04/27 11:00:58;;;;;;;;;28.25;21.25;;;;;34.66;78.07;101955.69;6108368;23;45865;-87
2022/04/27 11:03:26;;;;;;;;;26.67;23.00;;;;;36.47;75.54;101951.91;6109111;23;45983;-88
2022/04/27 11:05:52;;;;;;;;;28.00;23.67;;;;;37.48;70.94;101960.88;6084748;23;45426;-86
2022/04/27 11:08:58;;;;;;;;;20.00;18.00;;;;;38.81;66.29;101964.91;6103978;23;45311;-86
2022/04/27 11:11:26;;;;;;;;;23.00;22.00;;;;;39.02;63.08;101956.41;6051362;23;45287;-86
2022/04/27 11:13:58;;;;;;;;;19.00;19.00;;;;;37.37;58.80;101959.53;6050083;23;45587;-88
2022/04/27 11:16:24;;;;;;;;;23.00;20.67;;;;;36.87;59.33;101965.56;6026811;23;45458;-87
2022/04/27 11:18:58;;;;;;;;;18.33;16.67;;;;;35.43;57.22;101966.38;6027168;23;45765;-87
2022/04/27 11:21:29;;;;;;;;;17.00;16.00;;;;;36.36;60.44;101952.41;6043009;23;45537;-85
2022/04/27 11:23:55;;;;;;;;;20.00;18.67;;;;;37.17;58.54;101960.53;6050282;23;45553;-86
2022/04/27 11:26:20;;;;;;;;;17.67;17.00;;;;;37.33;57.70;101957.94;6050228;23;45244;-87
2022/04/27 11:28:47;;;;;;;;;25.33;19.67;;;;;35.89;54.95;101968.13;6073597;23;45876;-87
2022/04/27 11:31:14;;;;;;;;;18.33;17.33;;;;;35.37;55.73;101952.97;6051931;23;45308;-88
2022/04/27 11:33:40;;;;;;;;;19.67;17.00;;;;;35.92;56.94;101945.25;6051848;23;45489;-89
2022/04/27 11:36:21;;;;;;;;;20.33;18.33;;;;;36.78;56.38;101946.84;6072988;23;45713;-86
2022/04/27 11:38:47;;;;;;;;;20.00;18.33;;;;;36.50;55.28;101945.41;6049302;23;45356;-84
2022/04/27 11:41:18;;;;;;;;;18.33;17.67;;;;;35.85;54.02;101950.06;6051272;23;45615;-86
2022/04/27 11:43:44;;;;;;;;;19.00;17.00;;;;;35.64;55.82;101948.19;6027485;23;47444;-86
2022/04/27 11:46:10;;;;;;;;;18.33;17.33;;;;;37.36;55.93;101937.72;6051452;23;45441;-86
2022/04/27 11:48:36;;;;;;;;;21.33;17.33;;;;;38.52;54.90;101937.25;6091912;23;45399;-87
2022/04/27 11:51:03;;;;;;;;;17.33;16.00;;;;;40.13;54.19;101928.91;6111727;23;45462;-87
2022/04/27 11:53:29;;;;;;;;;19.67;19.00;;;;;40.29;51.94;101935.19;6111421;23;45642;-86
2022/04/27 11:55:55;;;;;;;;;15.67;14.00;;;;;39.95;51.97;101938.19;6112455;23;45490;-87
2022/04/27 11:58:28;;;;;;;;;20.00;17.67;;;;;39.80;49.96;101936.38;6113376;23;45435;-87
2022/04/27 12:00:57;;;;;;;;;18.33;16.33;;;;;40.89;50.55;101936.94;6111547;23;45334;-86
2022/04/27 12:03:24;;;;;;;;;16.33;15.67;;;;;42.24;49.32;101933.31;6111205;23;45933;-87
2022/04/27 12:05:51;;;;;;;;;19.33;19.00;;;;;43.58;48.44;101924.38;6110297;23;45268;-87
2022/04/27 12:08:21;;;;;;;;;13.00;12.00;;;;;44.94;48.11;101922.81;6112581;23;45327;-86
2022/04/27 12:10:49;;;;;;;;;17.00;16.00;;;;;46.20;46.39;101929.59;6111040;23;45279;-87
2022/04/27 12:13:17;;;;;;;;;17.67;15.67;;;;;47.16;45.09;101930.16;6134262;23;48415;-85
2022/04/27 12:15:47;;;;;;;;;9.67;9.00;;;;;47.88;43.32;101922.47;6111686;23;45642;-86
2022/04/27 12:18:19;;;;;;;;;17.67;15.67;;;;;48.53;43.15;101917.94;6113012;23;45354;-86
2022/04/27 12:20:48;;;;;;;;;15.00;13.67;;;;;48.71;40.47;101921.81;6134781;23;45325;-87
2022/04/27 12:23:17;;;;;;;;;14.00;13.00;;;;;47.81;39.61;101922.19;6107736;23;48033;-87
2022/04/27 12:26:03;;;;;;;;;11.67;11.33;;;;;48.01;39.81;101924.91;6133961;23;45860;-88
2022/04/27 12:28:35;;;;;;;;;16.67;13.33;;;;;48.52;40.35;101916.22;6108185;23;45275;-87
2022/04/27 12:31:06;;;;;;;;;14.00;12.00;;;;;48.53;39.90;101904.03;6112692;23;45305;-87
2022/04/27 12:33:37;;;;;;;;;9.33;8.33;;;;;49.07;38.80;101915.38;6112263;23;46320;-86
2022/04/27 12:39:20;;;;;;;;;12.33;11.67;;;;;49.39;36.91;101921.41;6120605;23;45307;-86
2022/04/27 12:41:47;;;;;;;;;14.67;13.67;;;;;46.87;35.82;101920.75;6120454;23;45390;-87
2022/04/27 12:44:14;;;;;;;;;14.00;13.00;;;;;46.15;36.52;101920.78;6129785;23;46469;-88
2022/04/27 12:47:04;;;;;;;;;15.00;14.00;;;;;46.00;36.91;101910.06;6152764;23;45221;-87
2022/04/27 12:49:33;;;;;;;;;13.67;13.33;;;;;46.45;36.39;101916.25;6129899;23;45363;-87
2022/04/27 12:52:27;;;;;;;;;12.33;11.67;;;;;47.71;37.32;101904.63;6125680;23;45487;-87
2022/04/27 12:55:07;;;;;;;;;10.00;10.00;;;;;49.25;36.51;101908.91;6116869;23;45412;-88
2022/04/27 12:57:51;;;;;;;;;14.00;14.00;;;;;50.45;35.90;101900.06;6112553;23;45482;-88
2022/04/27 13:00:22;;;;;;;;;11.33;11.33;;;;;51.37;35.82;101895.44;6115075;23;45766;-88
2022/04/27 13:02:47;;;;;;;;;11.33;11.00;;;;;52.47;34.70;101894.03;6107902;23;45399;-87
2022/04/27 13:05:14;;;;;;;;;13.00;12.00;;;;;52.29;33.19;101899.94;6133654;23;48329;-87
2022/04/27 13:07:42;;;;;;;;;13.33;12.67;;;;;52.03;33.95;101898.28;6112068;23;45392;-87
2022/04/27 13:12:52;;;;;;;;;11.00;11.00;;;;;53.91;33.55;101878.59;6112281;23;45437;-87
2022/04/27 13:15:18;;;;;;;;;9.67;8.67;;;;;54.73;33.04;101891.63;6112022;23;45474;-88
2022/04/27 13:17:43;;;;;;;;;10.00;10.00;;;;;54.91;31.64;101886.59;6135936;23;45633;-86
2022/04/27 13:20:09;;;;;;;;;8.00;8.00;;;;;54.78;31.75;101876.97;6112070;23;46269;-87
2022/04/27 13:22:35;;;;;;;;;13.00;13.00;;;;;55.34;31.19;101880.03;6153295;23;45423;-84
2022/04/27 13:25:01;;;;;;;;;11.67;11.00;;;;;55.63;30.48;101876.34;6133538;23;46258;-87
2022/04/27 13:27:27;;;;;;;;;8.67;8.67;;;;;55.09;30.29;101877.69;6129073;23;45245;-87
2022/04/27 13:29:54;;;;;;;;;10.00;9.33;;;;;52.91;29.66;101874.88;6120662;23;45326;-85
2022/04/27 13:32:20;;;;;;;;;14.33;11.33;;;;;53.01;30.90;101863.38;6110621;23;45278;-87
2022/04/27 13:34:46;;;;;;;;;12.67;12.67;;;;;53.92;30.09;101871.03;6107894;23;45460;-89
2022/04/27 13:37:11;;;;;;;;;12.00;11.33;;;;;54.58;30.89;101862.72;6109740;23;45567;-87
2022/04/27 13:39:36;;;;;;;;;9.33;9.33;;;;;54.29;29.82;101865.44;6109760;23;45286;-86
2022/04/27 13:42:05;;;;;;;;;11.00;8.67;;;;;53.68;29.67;101865.53;6109792;23;50394;-88
2022/04/27 13:44:31;;;;;;;;;11.67;10.33;;;;;53.39;29.86;101870.91;6110613;23;48424;-88
2022/04/27 13:46:56;;;;;;;;;10.33;10.33;;;;;52.11;29.00;101860.97;6111716;23;45225;-88
2022/04/27 13:49:21;;;;;;;;;11.33;11.33;;;;;51.15;30.06;101867.19;6111859;23;45228;-87
2022/04/27 13:51:49;;;;;;;;;9.00;9.00;;;;;50.43;30.08;101863.94;6108621;23;45403;-88
2022/04/27 13:54:15;;;;;;;;;11.67;10.00;;;;;49.37;29.97;101864.94;6111658;23;46182;-86
2022/04/27 13:56:40;;;;;;;;;10.00;9.33;;;;;49.27;30.73;101854.78;6134656;23;45744;-87
2022/04/27 13:59:06;;;;;;;;;11.00;11.00;;;;;50.29;30.28;101857.94;6111450;23;45722;-86
2022/04/27 14:01:31;;;;;;;;;12.00;11.67;;;;;50.82;30.42;101862.44;6108919;23;45741;-86
2022/04/27 14:03:56;;;;;;;;;10.67;10.67;;;;;49.12;29.61;101861.97;6111967;22;45433;-86
2022/04/27 14:06:22;;;;;;;;;14.00;11.67;;;;;47.47;30.82;101845.75;6110749;23;45466;-88
2022/04/27 14:08:47;;;;;;;;;11.33;11.33;;;;;48.55;31.30;101837.06;6112133;23;45272;-86
2022/04/27 14:13:57;;;;;;;;;9.00;9.00;;;;;51.01;29.33;101835.19;6111164;23;45778;-87
2022/04/27 14:19:06;;;;;;;;;9.00;9.00;;;;;45.49;30.10;101851.72;6112434;23;45392;-86
2022/04/27 14:21:32;;;;;;;;;10.67;9.67;;;;;42.66;31.09;101836.47;6108300;23;45279;-86
2022/04/27 14:23:57;;;;;;;;;13.33;13.33;;;;;41.67;32.30;101827.03;6108299;23;46605;-86
2022/04/27 14:26:22;;;;;;;;;13.00;11.67;;;;;42.73;33.36;101828.59;6110278;23;45544;-85
2022/04/27 14:28:49;;;;;;;;;11.00;9.67;;;;;42.20;32.37;101833.41;6110036;23;45321;-87
2022/04/27 14:31:15;;;;;;;;;12.67;12.67;;;;;40.91;32.74;101813.88;6110349;23;45674;-86
2022/04/27 14:33:40;;;;;;;;;11.33;11.33;;;;;40.35;33.79;101814.81;6110381;23;46810;-86
2022/04/27 14:36:05;;;;;;;;;11.33;8.67;;;;;41.01;34.83;101816.84;6110578;23;45517;-86
2022/04/27 14:38:31;;;;;;;;;13.67;9.67;;;;;41.17;34.73;101816.72;6111349;23;45312;-86
2022/04/27 14:40:56;;;;;;;;;9.67;8.67;;;;;41.75;34.56;101814.59;6105255;23;45415;-89
2022/04/27 14:43:22;;;;;;;;;12.00;11.00;;;;;41.33;34.54;101807.38;6110234;23;46903;-88
2022/04/27 14:45:48;;;;;;;;;13.00;13.00;;;;;41.25;34.34;101810.69;6110164;23;45217;-87
2022/04/27 14:48:13;;;;;;;;;13.00;11.33;;;;;40.26;34.71;101800.69;6109471;23;45455;-86
2022/04/27 14:50:39;;;;;;;;;10.33;9.00;;;;;38.82;34.87;101799.31;6111221;23;45415;-90
2022/04/27 14:53:05;;;;;;;;;12.67;9.67;;;;;37.33;35.70;101816.50;6110780;23;47953;-87
2022/04/27 14:55:31;;;;;;;;;10.00;9.67;;;;;35.78;36.19;101804.72;6106271;23;45807;-87
2022/04/27 14:57:56;;;;;;;;;10.00;10.00;;;;;34.37;37.22;101810.53;6111832;23;45370;-88
2022/04/27 15:00:22;;;;;;;;;10.00;8.67;;;;;33.23;38.19;101810.94;6111486;23;45485;-87
2022/04/27 15:02:48;;;;;;;;;11.33;11.33;;;;;32.39;39.29;101804.50;6113011;23;46134;-88
2022/04/27 15:05:15;;;;;;;;;11.33;11.00;;;;;31.86;40.30;101811.41;6112477;23;45381;-88
2022/04/27 15:07:40;;;;;;;;;8.33;8.00;;;;;31.29;40.22;101801.13;6133735;23;45821;-88
2022/04/27 15:10:06;;;;;;;;;13.00;12.00;;;;;30.64;41.09;101805.34;6135498;23;45640;-89
2022/04/27 15:12:31;;;;;;;;;9.67;8.33;;;;;29.97;41.69;101802.22;6135645;23;47988;-88
2022/04/27 15:14:56;;;;;;;;;13.33;12.00;;;;;29.34;41.87;101800.66;6113424;23;47471;-87
2022/04/27 15:17:21;;;;;;;;;11.00;11.00;;;;;28.71;42.93;101800.69;6134279;23;45350;-87
2022/04/27 15:22:41;;;;;;;;;10.33;10.00;;;;;28.15;43.66;101796.00;6109250;23;45303;-90
2022/04/27 15:22:44;;;;;;;;;8.67;8.67;;;;;27.63;44.69;101791.13;6135705;23;45433;-88
2022/04/27 15:25:13;;;;;;;;;15.33;12.00;;;;;27.30;45.37;101791.44;6115620;23;45782;-88
2022/04/27 15:27:39;;;;;;;;;11.33;10.67;;;;;27.06;46.19;101796.97;6112627;23;45339;-89
2022/04/27 15:30:05;;;;;;;;;14.67;10.67;;;;;26.76;46.07;101807.97;6112286;23;45314;-85
2022/04/27 15:32:31;;;;;;;;;11.67;11.67;;;;;26.34;46.76;101794.66;6112996;23;45417;-89
2022/04/27 15:34:56;;;;;;;;;13.67;13.00;;;;;25.86;46.86;101787.66;6150616;23;45821;-88
2022/04/27 15:37:21;;;;;;;;;8.33;8.33;;;;;25.44;47.49;101793.97;6114929;22;45561;-89
2022/04/27 15:39:47;;;;;;;;;10.00;9.00;;;;;25.05;48.17;101792.16;6113049;23;45588;-89
2022/04/27 15:42:27;;;;;;;;;10.00;10.00;;;;;24.80;49.15;101785.81;6134185;23;45211;-88
2022/04/27 15:44:53;;;;;;;;;13.67;10.67;;;;;24.53;49.26;101781.28;6137116;23;46016;-88
2022/04/27 15:47:18;;;;;;;;;11.00;11.00;;;;;24.35;50.11;101776.78;6238244;22;45343;-87
2022/04/27 15:49:47;;;;;;;;;11.33;9.67;;;;;24.30;50.61;101787.44;6155088;23;44677;-88
2022/04/27 15:52:16;;;;;;;;;13.00;10.00;;;;;24.29;50.77;101791.03;6137936;23;46270;-88
2022/04/27 15:54:42;;;;;;;;;12.00;10.67;;;;;24.31;51.10;101783.00;6111661;23;45399;-88
2022/04/27 15:57:07;;;;;;;;;9.00;9.00;;;;;24.28;51.12;101783.88;6111388;23;45728;-87
2022/04/27 15:59:33;;;;;;;;;11.00;9.67;;;;;24.21;51.40;101773.97;6135595;23;45679;-87
2022/04/27 16:01:58;;;;;;;;;9.33;9.33;;;;;24.02;51.81;101779.25;6108580;23;47338;-87
2022/04/27 16:04:24;;;;;;;;;10.00;10.00;;;;;23.80;52.36;101772.88;6111200;23;45836;-88
2022/04/27 16:06:49;;;;;;;;;14.33;11.67;;;;;23.61;52.43;101779.00;6109912;23;45839;-87
2022/04/27 16:09:14;;;;;;;;;13.00;13.00;;;;;23.40;52.93;101766.31;6134403;23;45447;-87
2022/04/27 16:11:40;;;;;;;;;12.33;12.33;;;;;23.29;53.58;101776.94;6112212;22;46345;-87
2022/04/27 16:14:06;;;;;;;;;9.00;9.00;;;;;23.27;54.15;101774.22;6134069;23;45405;-87
2022/04/27 16:16:32;;;;;;;;;10.67;10.00;;;;;23.25;54.13;101777.78;6112052;23;45330;-86
2022/04/27 16:18:57;;;;;;;;;9.67;9.00;;;;;23.12;53.99;101775.00;6111975;23;45265;-87
2022/04/27 16:24:06;;;;;;;;;9.67;8.33;;;;;22.70;53.86;101780.84;6110792;23;45392;-87
2022/04/27 16:26:31;;;;;;;;;8.67;8.00;;;;;22.51;54.13;101785.06;6104005;23;45615;-86
2022/04/27 16:28:57;;;;;;;;;8.00;8.00;;;;;22.35;54.24;101773.25;6108539;23;45596;-86
2022/04/27 16:31:24;;;;;;;;;8.67;8.67;;;;;22.21;54.69;101776.69;6134190;23;46947;-92
2022/04/27 16:33:51;;;;;;;;;11.00;10.00;;;;;22.10;54.91;101774.75;6125751;23;45808;-88
2022/04/27 16:36:17;;;;;;;;;9.67;8.00;;;;;21.99;55.47;101779.03;6132122;23;45290;-85
2022/04/27 16:38:45;;;;;;;;;11.67;9.33;;;;;21.91;55.38;101778.94;6107995;23;45675;-88
2022/04/27 16:41:11;;;;;;;;;9.00;7.67;;;;;21.82;56.01;101765.41;6109669;23;47076;-88
2022/04/27 16:43:37;;;;;;;;;9.00;7.67;;;;;21.77;56.27;101768.03;6133896;23;45925;-88
2022/04/27 16:46:02;;;;;;;;;8.67;8.67;;;;;21.72;56.63;101775.06;6111295;23;45465;-88
2022/04/27 16:48:28;;;;;;;;;9.33;8.67;;;;;21.63;57.21;101767.78;6112452;23;45176;-88
2022/04/27 16:50:53;;;;;;;;;11.00;10.00;;;;;21.52;56.86;101767.63;6111687;23;45393;-88
2022/04/27 16:53:19;;;;;;;;;8.67;6.67;;;;;21.45;57.31;101761.28;6111135;23;52131;-87
2022/04/27 16:55:44;;;;;;;;;9.00;9.00;;;;;21.37;57.73;101765.59;6110805;23;45360;-87
2022/04/27 16:58:10;;;;;;;;;9.00;9.00;;;;;21.29;58.07;101769.03;6112384;23;45569;-88
2022/04/27 17:00:54;;;;;;;;;8.33;7.67;;;;;21.23;57.67;101768.06;6119410;23;47451;-88
2022/04/27 17:03:20;;;;;;;;;8.00;8.00;;;;;21.19;57.92;101769.75;6131426;23;45721;-88
2022/04/27 17:05:46;;;;;;;;;9.33;9.33;;;;;21.13;58.30;101770.53;6131622;23;45220;-91
2022/04/27 17:08:11;;;;;;;;;7.67;7.67;;;;;21.12;57.92;101768.75;6155636;23;45872;-88
2022/04/27 17:10:38;;;;;;;;;6.33;6.33;;;;;21.07;58.22;101757.09;6116256;23;45807;-89
2022/04/27 17:13:03;;;;;;;;;7.67;6.33;;;;;21.02;58.33;101756.13;6136219;23;46090;-89
2022/04/27 17:15:34;;;;;;;;;6.00;6.00;;;;;20.98;58.64;101761.38;6107948;23;45393;-89
2022/04/27 17:17:59;;;;;;;;;9.33;8.33;;;;;20.96;58.72;101768.44;6112491;23;45541;-89
2022/04/27 17:20:25;;;;;;;;;7.00;7.00;;;;;20.91;58.90;101779.91;6111635;23;45968;-88
2022/04/27 17:22:51;;;;;;;;;8.00;8.00;;;;;20.84;58.96;101779.81;6110198;23;45272;-89
2022/04/27 17:27:27;;;;;;;;;9.33;8.00;;;;;20.77;58.98;101772.56;6111330;23;45433;-90
2022/04/27 17:28:04;;;;;;;;;10.67;9.33;;;;;20.69;59.48;101772.41;6110980;23;45298;-90
2022/04/27 17:30:29;;;;;;;;;9.33;9.33;;;;;20.67;59.61;101779.47;6103693;23;46202;-87
2022/04/27 17:32:55;;;;;;;;;11.00;11.00;;;;;20.63;59.77;101780.28;6110162;23;45230;-88
2022/04/27 17:35:20;;;;;;;;;11.33;9.33;;;;;20.59;60.24;101786.44;6133303;23;45683;-89
2022/04/27 17:37:45;;;;;;;;;12.00;8.33;;;;;20.54;60.56;101788.97;6111176;23;47155;-88
2022/04/27 17:40:11;;;;;;;;;9.00;8.00;;;;;20.48;60.47;101788.88;6110826;23;45720;-91
2022/04/27 17:42:36;;;;;;;;;9.33;9.33;;;;;20.42;60.85;101789.63;6111938;23;45365;-88
2022/04/27 17:45:05;;;;;;;;;8.33;8.00;;;;;20.38;61.21;101788.69;6108621;23;45709;-91
2022/04/27 17:47:31;;;;;;;;;7.33;7.33;;;;;20.34;60.95;101801.91;6111995;23;45313;-92
2022/04/27 17:49:57;;;;;;;;;7.33;7.33;;;;;20.30;61.66;101788.53;6111665;23;45833;-89
2022/04/27 17:52:23;;;;;;;;;11.00;9.67;;;;;20.31;61.92;101800.06;6114785;23;45420;-91
2022/04/27 17:54:49;;;;;;;;;10.33;9.00;;;;;20.26;62.01;101791.06;6134764;23;45339;-90
2022/04/27 17:57:14;;;;;;;;;11.67;9.33;;;;;20.24;62.17;101791.03;6133812;23;45420;-91
2022/04/27 17:59:40;;;;;;;;;8.33;8.33;;;;;20.24;62.28;101799.03;6134753;22;47186;-89
2022/04/27 18:02:06;;;;;;;;;21.75;19.00;;;;;20.27;62.32;101803.53;6111976;23;45356;-92
2022/04/27 18:04:32;;;;;;;;;10.00;9.00;;;;;20.22;62.32;101811.44;6111731;23;45354;-93
2022/04/27 18:06:58;;;;;;;;;8.00;8.00;;;;;20.16;62.17;101812.19;6112084;23;45255;-91
2022/04/27 18:09:27;;;;;;;;;9.33;8.33;;;;;20.11;62.13;101819.16;6112493;22;46357;-90